Time;durP1;ratioP1;P1;durP2;ratioP2;P2;SDS_P1;SDS_P2;PMS_P1;PMS_P2;Temp;Humidity;BMP_temperature;BMP_pressure;BME280_temperature;BME280_humidity;BME280_pressure;Samples;Min_cycle;Max_cycle;Signal;HPM_P1;HPM_P2
2023/06/03 00:00:08;;;;;;;0.70;0.70;;;;;;;;;;5004486;28;20783;-73
2023/06/03 00:02:35;;;;;;;0.70;0.70;;;;;;;;;;5017714;28;20457;-72
2023/06/03 00:05:04;;;;;;;0.70;0.60;;;;;;;;;;5004543;28;20566;-72
2023/06/03 00:07:31;;;;;;;0.70;0.60;;;;;;;;;;5009809;28;20522;-73
2023/06/03 00:09:58;;;;;;;0.70;0.70;;;;;;;;;;5007784;28;20957;-73
2023/06/03 00:12:25;;;;;;;0.70;0.60;;;;;;;;;;5006519;28;20499;-72
2023/06/03 00:14:51;;;;;;;0.70;0.60;;;;;;;;;;5006485;28;20917;-71
2023/06/03 00:17:21;;;;;;;0.97;0.87;;;;;;;;;;5001920;28;20546;-72
2023/06/03 00:19:48;;;;;;;0.70;0.60;;;;;;;;;;5006502;28;20884;-72
2023/06/03 00:22:16;;;;;;;0.70;0.60;;;;;;;;;;5003692;28;20970;-73
2023/06/03 00:24:43;;;;;;;0.70;0.60;;;;;;;;;;5001702;28;20441;-73
2023/06/03 00:27:09;;;;;;;0.70;0.70;;;;;;;;;;4994134;28;20434;-72
2023/06/03 00:29:37;;;;;;;0.70;0.70;;;;;;;;;;5002481;28;20501;-72
2023/06/03 00:32:04;;;;;;;0.70;0.60;;;;;;;;;;4996647;28;20453;-72
2023/06/03 00:34:31;;;;;;;0.83;0.77;;;;;;;;;;4997886;28;20504;-72
2023/06/03 00:36:57;;;;;;;0.70;0.60;;;;;;;;;;5005420;28;20885;-72
2023/06/03 00:39:25;;;;;;;0.70;0.70;;;;;;;;;;4991053;28;20568;-73
2023/06/03 00:41:52;;;;;;;0.70;0.60;;;;;;;;;;5007830;28;20489;-72
2023/06/03 00:44:19;;;;;;;0.70;0.60;;;;;;;;;;5006719;28;20461;-73
2023/06/03 00:46:46;;;;;;;0.90;0.90;;;;;;;;;;4999071;28;20438;-73
2023/06/03 00:49:12;;;;;;;0.70;0.60;;;;;;;;;;5008799;28;20541;-73
2023/06/03 00:51:39;;;;;;;0.70;0.60;;;;;;;;;;4993875;28;20478;-73
2023/06/03 00:54:06;;;;;;;0.80;0.70;;;;;;;;;;5000543;28;20449;-72
2023/06/03 00:56:38;;;;;;;0.70;0.60;;;;;;;;;;5009141;28;20471;-73
2023/06/03 00:59:05;;;;;;;0.70;0.60;;;;;;;;;;5000297;28;20470;-72
2023/06/03 01:01:35;;;;;;;0.70;0.60;;;;;;;;;;5007883;28;20450;-72
2023/06/03 01:04:03;;;;;;;0.70;0.60;;;;;;;;;;5006162;28;20836;-72
2023/06/03 01:06:34;;;;;;;1.20;1.10;;;;;;;;;;5000838;28;20444;-73
2023/06/03 01:09:04;;;;;;;0.70;0.60;;;;;;;;;;5002793;28;20940;-74
2023/06/03 01:11:36;;;;;;;0.70;0.60;;;;;;;;;;5006338;28;20444;-72
2023/06/03 01:14:05;;;;;;;0.70;0.60;;;;;;;;;;5005987;28;20469;-71
2023/06/03 01:16:32;;;;;;;0.70;0.70;;;;;;;;;;5000484;28;20554;-73
2023/06/03 01:19:01;;;;;;;0.70;0.63;;;;;;;;;;5013219;28;20961;-71
2023/06/03 01:21:34;;;;;;;0.70;0.63;;;;;;;;;;5009153;28;20453;-73
2023/06/03 01:24:02;;;;;;;0.70;0.60;;;;;;;;;;5011988;28;20469;-71
2023/06/03 01:26:29;;;;;;;1.00;1.00;;;;;;;;;;5004914;28;20537;-71
2023/06/03 01:28:56;;;;;;;0.70;0.60;;;;;;;;;;4991360;28;20482;-73
2023/06/03 01:31:23;;;;;;;0.70;0.60;;;;;;;;;;5013217;28;20445;-72
2023/06/03 01:33:50;;;;;;;0.70;0.60;;;;;;;;;;5011332;28;20586;-73
2023/06/03 01:36:17;;;;;;;0.77;0.60;;;;;;;;;;5002050;28;20449;-71
2023/06/03 01:38:44;;;;;;;0.70;0.60;;;;;;;;;;4986842;28;20480;-73
2023/06/03 01:41:12;;;;;;;0.80;0.70;;;;;;;;;;5000789;28;20861;-73
2023/06/03 01:43:39;;;;;;;0.70;0.70;;;;;;;;;;5012881;28;20465;-71
2023/06/03 01:46:07;;;;;;;0.70;0.60;;;;;;;;;;5004827;28;21000;-72
2023/06/03 01:48:34;;;;;;;0.70;0.70;;;;;;;;;;5002370;28;20475;-71
2023/06/03 01:51:01;;;;;;;0.70;0.60;;;;;;;;;;5012427;28;20453;-72
2023/06/03 01:53:28;;;;;;;0.70;0.60;;;;;;;;;;5011899;28;20826;-72
2023/06/03 01:55:56;;;;;;;0.70;0.70;;;;;;;;;;4993078;28;20534;-73
2023/06/03 01:58:24;;;;;;;0.80;0.70;;;;;;;;;;5003226;28;20436;-73
2023/06/03 02:00:51;;;;;;;0.70;0.60;;;;;;;;;;5009706;28;20861;-73
2023/06/03 02:03:17;;;;;;;0.90;0.90;;;;;;;;;;5003307;28;20453;-73
2023/06/03 02:05:44;;;;;;;0.70;0.70;;;;;;;;;;5007150;28;20429;-73
2023/06/03 02:08:11;;;;;;;0.70;0.60;;;;;;;;;;4988378;28;20577;-73
2023/06/03 02:10:38;;;;;;;0.70;0.70;;;;;;;;;;5009847;28;20454;-74
2023/06/03 02:13:04;;;;;;;0.70;0.60;;;;;;;;;;5007961;28;20446;-72
2023/06/03 02:15:32;;;;;;;0.70;0.60;;;;;;;;;;5004016;28;20449;-71
2023/06/03 02:17:59;;;;;;;0.70;0.60;;;;;;;;;;5005179;28;20519;-72
2023/06/03 02:20:26;;;;;;;0.70;0.60;;;;;;;;;;5005535;28;20454;-72
2023/06/03 02:22:53;;;;;;;0.70;0.70;;;;;;;;;;5005916;28;20457;-71
2023/06/03 02:25:21;;;;;;;0.70;0.60;;;;;;;;;;4990257;28;20452;-72
2023/06/03 02:27:49;;;;;;;0.70;0.60;;;;;;;;;;5010254;28;20477;-74
2023/06/03 02:30:16;;;;;;;0.70;0.60;;;;;;;;;;5008235;28;20457;-72
2023/06/03 02:32:45;;;;;;;0.70;0.60;;;;;;;;;;4998043;28;20431;-74
2023/06/03 02:35:12;;;;;;;0.70;0.60;;;;;;;;;;5011370;28;20833;-74
2023/06/03 02:37:39;;;;;;;0.70;0.60;;;;;;;;;;5010344;28;20464;-72
2023/06/03 02:40:09;;;;;;;1.53;1.43;;;;;;;;;;5005268;28;20855;-71
2023/06/03 02:42:36;;;;;;;0.70;0.60;;;;;;;;;;4994962;28;20437;-73
2023/06/03 02:45:03;;;;;;;0.80;0.77;;;;;;;;;;4992573;28;20570;-72
2023/06/03 02:47:30;;;;;;;0.70;0.60;;;;;;;;;;4983607;28;20492;-71
2023/06/03 02:49:58;;;;;;;0.70;0.70;;;;;;;;;;5008317;28;20453;-72
2023/06/03 02:52:25;;;;;;;0.70;0.60;;;;;;;;;;4980651;28;20462;-74
2023/06/03 02:54:52;;;;;;;0.70;0.60;;;;;;;;;;5000878;28;20531;-75
2023/06/03 02:57:19;;;;;;;0.70;0.70;;;;;;;;;;4993303;28;20458;-72
2023/06/03 02:59:46;;;;;;;0.70;0.60;;;;;;;;;;4993598;28;20453;-72
2023/06/03 03:02:15;;;;;;;0.70;0.60;;;;;;;;;;5004302;28;20437;-73
2023/06/03 03:04:42;;;;;;;0.70;0.60;;;;;;;;;;4988420;28;20443;-73
2023/06/03 03:07:10;;;;;;;0.70;0.60;;;;;;;;;;5007932;28;20814;-72
2023/06/03 03:09:38;;;;;;;0.70;0.60;;;;;;;;;;5008499;28;20439;-73
2023/06/03 03:12:07;;;;;;;0.70;0.60;;;;;;;;;;5009977;28;20536;-72
2023/06/03 03:14:37;;;;;;;0.70;0.60;;;;;;;;;;4999387;28;20497;-74
2023/06/03 03:17:05;;;;;;;0.70;0.60;;;;;;;;;;5009332;28;20446;-74
2023/06/03 03:19:32;;;;;;;0.70;0.60;;;;;;;;;;5006329;28;20448;-72
2023/06/03 03:21:58;;;;;;;0.70;0.70;;;;;;;;;;5005162;28;20476;-71
2023/06/03 03:24:30;;;;;;;0.70;0.60;;;;;;;;;;4987653;28;20474;-72
2023/06/03 03:26:57;;;;;;;1.10;1.00;;;;;;;;;;5012745;28;20451;-72
2023/06/03 03:29:25;;;;;;;0.70;0.60;;;;;;;;;;5011019;28;20452;-72
2023/06/03 03:32:06;;;;;;;0.70;0.60;;;;;;;;;;5008639;28;21013;-72
2023/06/03 03:34:38;;;;;;;0.70;0.67;;;;;;;;;;5009467;28;20500;-72
2023/06/03 03:37:07;;;;;;;0.70;0.63;;;;;;;;;;4991573;28;20486;-71
2023/06/03 03:39:38;;;;;;;0.70;0.60;;;;;;;;;;4999821;28;20802;-72
2023/06/03 03:42:05;;;;;;;0.70;0.60;;;;;;;;;;5001204;28;20516;-73
2023/06/03 03:44:33;;;;;;;0.70;0.60;;;;;;;;;;5008315;28;20447;-72
2023/06/03 03:47:03;;;;;;;0.70;0.60;;;;;;;;;;5009972;28;20451;-71
2023/06/03 03:49:34;;;;;;;0.70;0.60;;;;;;;;;;5008553;28;20515;-71
2023/06/03 03:52:05;;;;;;;0.70;0.60;;;;;;;;;;5007471;28;20558;-72
2023/06/03 03:54:35;;;;;;;0.80;0.80;;;;;;;;;;4990224;28;20458;-72
2023/06/03 03:57:08;;;;;;;0.70;0.67;;;;;;;;;;5002874;28;20454;-72
2023/06/03 03:59:35;;;;;;;0.70;0.60;;;;;;;;;;4996655;28;20465;-71
2023/06/03 04:02:02;;;;;;;0.70;0.60;;;;;;;;;;5014358;28;20462;-72
2023/06/03 04:04:41;;;;;;;2.00;1.90;;;;;;;;;;5008244;28;20542;-71
2023/06/03 04:07:08;;;;;;;0.80;0.80;;;;;;;;;;5002770;28;20495;-72
2023/06/03 04:09:36;;;;;;;0.70;0.70;;;;;;;;;;5002161;28;20926;-74
2023/06/03 04:12:06;;;;;;;0.70;0.60;;;;;;;;;;5000330;28;20504;-74
2023/06/03 04:14:44;;;;;;;0.70;0.63;;;;;;;;;;4990032;28;20548;-72
2023/06/03 04:17:12;;;;;;;0.70;0.60;;;;;;;;;;5007810;28;20480;-74
2023/06/03 04:19:41;;;;;;;0.70;0.60;;;;;;;;;;5000840;28;21053;-74
2023/06/03 04:22:18;;;;;;;0.70;0.70;;;;;;;;;;5003018;28;20982;-72
2023/06/03 04:24:46;;;;;;;0.70;0.70;;;;;;;;;;5009355;28;20458;-74
2023/06/03 04:27:14;;;;;;;0.70;0.60;;;;;;;;;;4986875;28;21209;-74
2023/06/03 04:29:42;;;;;;;0.70;0.60;;;;;;;;;;5017593;28;20449;-73
2023/06/03 04:32:09;;;;;;;0.80;0.70;;;;;;;;;;5013598;28;20458;-74
2023/06/03 04:34:47;;;;;;;0.70;0.60;;;;;;;;;;5005745;28;20464;-72
2023/06/03 04:37:14;;;;;;;0.70;0.60;;;;;;;;;;5003668;28;20477;-72
2023/06/03 04:39:41;;;;;;;0.70;0.70;;;;;;;;;;5008740;28;20480;-74
2023/06/03 04:42:07;;;;;;;0.70;0.60;;;;;;;;;;4999127;28;20451;-72
2023/06/03 04:44:35;;;;;;;0.70;0.60;;;;;;;;;;5006924;28;20465;-72
2023/06/03 04:47:03;;;;;;;0.90;0.90;;;;;;;;;;4986987;28;20825;-72
2023/06/03 04:49:32;;;;;;;0.70;0.60;;;;;;;;;;5007502;28;20486;-74
2023/06/03 04:52:01;;;;;;;1.03;0.90;;;;;;;;;;5005548;28;20468;-73
2023/06/03 04:54:29;;;;;;;0.70;0.60;;;;;;;;;;5003869;28;20453;-72
2023/06/03 04:56:55;;;;;;;0.70;0.60;;;;;;;;;;4994709;28;20543;-73
2023/06/03 04:59:22;;;;;;;0.70;0.60;;;;;;;;;;5002375;28;20511;-73
2023/06/03 05:01:55;;;;;;;0.70;0.70;;;;;;;;;;4997223;28;20445;-73
2023/06/03 05:04:29;;;;;;;0.70;0.60;;;;;;;;;;5007946;28;20860;-74
2023/06/03 05:07:00;;;;;;;0.70;0.60;;;;;;;;;;5003892;28;20906;-72
2023/06/03 05:09:27;;;;;;;0.70;0.70;;;;;;;;;;5003354;28;20470;-72
2023/06/03 05:11:56;;;;;;;0.70;0.70;;;;;;;;;;5006607;28;20470;-72
2023/06/03 05:14:23;;;;;;;0.70;0.60;;;;;;;;;;5000506;28;20450;-74
2023/06/03 05:16:50;;;;;;;0.70;0.60;;;;;;;;;;4985216;28;20456;-72
2023/06/03 05:19:17;;;;;;;0.70;0.60;;;;;;;;;;5003784;28;20454;-72
2023/06/03 05:21:46;;;;;;;1.00;0.90;;;;;;;;;;4987888;28;20498;-72
2023/06/03 05:24:13;;;;;;;0.70;0.60;;;;;;;;;;4988772;28;20461;-72
2023/06/03 05:26:39;;;;;;;0.70;0.60;;;;;;;;;;5006556;28;20538;-73
2023/06/03 05:29:07;;;;;;;0.80;0.70;;;;;;;;;;4987972;28;20469;-73
2023/06/03 05:31:34;;;;;;;0.83;0.83;;;;;;;;;;5006513;28;20447;-73
2023/06/03 05:34:02;;;;;;;0.70;0.67;;;;;;;;;;5007712;28;20434;-74
2023/06/03 05:36:29;;;;;;;0.70;0.70;;;;;;;;;;4991746;28;20570;-72
2023/06/03 05:39:00;;;;;;;0.70;0.60;;;;;;;;;;5008652;28;20557;-73
2023/06/03 05:41:29;;;;;;;0.80;0.70;;;;;;;;;;5003736;28;20456;-75
2023/06/03 05:43:55;;;;;;;0.93;0.90;;;;;;;;;;5006545;28;20902;-73
2023/06/03 05:46:23;;;;;;;0.70;0.60;;;;;;;;;;5005967;28;20478;-73
2023/06/03 05:48:50;;;;;;;0.70;0.70;;;;;;;;;;5006416;28;20515;-73
2023/06/03 05:51:17;;;;;;;0.80;0.70;;;;;;;;;;5007026;28;20446;-73
2023/06/03 05:53:45;;;;;;;0.70;0.60;;;;;;;;;;4996529;28;20468;-74
2023/06/03 05:56:17;;;;;;;0.70;0.70;;;;;;;;;;4997344;28;20446;-73
2023/06/03 05:58:44;;;;;;;0.70;0.60;;;;;;;;;;4989078;28;20431;-74
2023/06/03 06:01:11;;;;;;;0.80;0.80;;;;;;;;;;4988283;28;20446;-72
2023/06/03 06:03:38;;;;;;;0.70;0.70;;;;;;;;;;5008443;28;20836;-72
2023/06/03 06:06:05;;;;;;;0.80;0.80;;;;;;;;;;5013585;28;20532;-74
2023/06/03 06:08:33;;;;;;;0.80;0.80;;;;;;;;;;4999962;28;20468;-74
2023/06/03 06:11:01;;;;;;;0.80;0.80;;;;;;;;;;5003584;28;20453;-74
2023/06/03 06:13:30;;;;;;;0.70;0.60;;;;;;;;;;5006790;28;20449;-73
2023/06/03 06:15:57;;;;;;;0.73;0.70;;;;;;;;;;5002431;28;20749;-73
2023/06/03 06:18:25;;;;;;;0.80;0.73;;;;;;;;;;5015661;28;20498;-74
2023/06/03 06:20:53;;;;;;;0.93;0.83;;;;;;;;;;5004683;28;20453;-73
2023/06/03 06:23:19;;;;;;;0.70;0.70;;;;;;;;;;5000194;28;20814;-76
2023/06/03 06:25:48;;;;;;;0.70;0.70;;;;;;;;;;5000339;28;20437;-73
2023/06/03 06:28:17;;;;;;;0.80;0.73;;;;;;;;;;5010818;28;20477;-73
2023/06/03 06:30:46;;;;;;;0.70;0.60;;;;;;;;;;4993267;28;20978;-72
2023/06/03 06:33:15;;;;;;;0.70;0.70;;;;;;;;;;5009527;28;20460;-74
2023/06/03 06:35:42;;;;;;;0.90;0.80;;;;;;;;;;4998965;28;20450;-74
2023/06/03 06:38:10;;;;;;;0.80;0.70;;;;;;;;;;5008762;28;20464;-74
2023/06/03 06:40:40;;;;;;;0.70;0.70;;;;;;;;;;4999173;28;20450;-73
2023/06/03 06:43:12;;;;;;;0.80;0.77;;;;;;;;;;5003309;28;20766;-75
2023/06/03 06:45:43;;;;;;;0.70;0.70;;;;;;;;;;4990197;28;21501;-74
2023/06/03 06:48:12;;;;;;;0.70;0.70;;;;;;;;;;5012023;28;20918;-74
2023/06/03 06:50:46;;;;;;;0.70;0.70;;;;;;;;;;4991580;28;20457;-73
2023/06/03 06:53:16;;;;;;;0.80;0.70;;;;;;;;;;5000953;28;21018;-75
2023/06/03 06:55:46;;;;;;;0.70;0.60;;;;;;;;;;4991870;28;20549;-73
2023/06/03 06:58:15;;;;;;;0.70;0.63;;;;;;;;;;4983520;28;20829;-73
2023/06/03 07:00:42;;;;;;;0.70;0.63;;;;;;;;;;5006289;28;20452;-74
2023/06/03 07:03:12;;;;;;;0.73;0.70;;;;;;;;;;5005502;28;20943;-75
2023/06/03 07:05:39;;;;;;;0.70;0.60;;;;;;;;;;5009995;28;20976;-75
2023/06/03 07:08:08;;;;;;;0.80;0.70;;;;;;;;;;5001940;28;20980;-75
2023/06/03 07:10:35;;;;;;;0.70;0.70;;;;;;;;;;5000348;28;20456;-75
2023/06/03 07:13:06;;;;;;;0.80;0.80;;;;;;;;;;5001377;28;20436;-73
2023/06/03 07:15:32;;;;;;;0.73;0.70;;;;;;;;;;4987733;28;20448;-73
2023/06/03 07:17:59;;;;;;;0.80;0.70;;;;;;;;;;5005327;28;20503;-73
2023/06/03 07:20:33;;;;;;;0.80;0.80;;;;;;;;;;4991259;28;20523;-74
2023/06/03 07:22:59;;;;;;;0.70;0.60;;;;;;;;;;4999369;28;20471;-75
2023/06/03 07:25:33;;;;;;;0.80;0.80;;;;;;;;;;5011393;28;20436;-74
2023/06/03 07:28:02;;;;;;;0.70;0.63;;;;;;;;;;4996867;28;20452;-75
2023/06/03 07:30:28;;;;;;;0.80;0.70;;;;;;;;;;5005198;28;20439;-74
2023/06/03 07:32:57;;;;;;;0.73;0.70;;;;;;;;;;5012227;28;20443;-75
2023/06/03 07:35:24;;;;;;;0.80;0.70;;;;;;;;;;4990894;28;20464;-76
2023/06/03 07:37:53;;;;;;;0.70;0.70;;;;;;;;;;5008357;28;20486;-73
2023/06/03 07:40:25;;;;;;;0.80;0.73;;;;;;;;;;4996687;28;20427;-74
2023/06/03 07:42:52;;;;;;;0.80;0.70;;;;;;;;;;5008657;28;20458;-73
2023/06/03 07:45:19;;;;;;;0.80;0.70;;;;;;;;;;5000377;28;20461;-73
2023/06/03 07:47:47;;;;;;;0.77;0.73;;;;;;;;;;5004932;28;20530;-74
2023/06/03 07:50:20;;;;;;;0.80;0.80;;;;;;;;;;5000928;28;20527;-74
2023/06/03 07:52:49;;;;;;;0.70;0.70;;;;;;;;;;4999276;28;20452;-73
2023/06/03 07:55:17;;;;;;;0.80;0.80;;;;;;;;;;5001797;28;20494;-76
2023/06/03 07:57:48;;;;;;;0.70;0.60;;;;;;;;;;5004872;28;20857;-75
2023/06/03 08:00:16;;;;;;;1.40;1.10;;;;;;;;;;5003490;28;20457;-74
2023/06/03 08:02:43;;;;;;;0.80;0.70;;;;;;;;;;5004581;28;20454;-74
2023/06/03 08:05:10;;;;;;;0.80;0.80;;;;;;;;;;4998820;28;20462;-74
2023/06/03 08:07:37;;;;;;;0.80;0.73;;;;;;;;;;4996866;28;20466;-76
2023/06/03 08:10:06;;;;;;;0.80;0.70;;;;;;;;;;5002834;28;20551;-75
2023/06/03 08:12:34;;;;;;;0.80;0.80;;;;;;;;;;5010712;28;20504;-72
2023/06/03 08:15:01;;;;;;;0.70;0.70;;;;;;;;;;4997633;28;20451;-74
2023/06/03 08:17:35;;;;;;;0.70;0.70;;;;;;;;;;4989417;28;20572;-73
2023/06/03 08:20:08;;;;;;;0.70;0.60;;;;;;;;;;5004690;28;21095;-75
2023/06/03 08:22:39;;;;;;;0.70;0.70;;;;;;;;;;5002457;28;20461;-74
2023/06/03 08:25:06;;;;;;;2.60;0.93;;;;;;;;;;4998106;28;20481;-75
2023/06/03 08:27:35;;;;;;;0.80;0.80;;;;;;;;;;5002771;28;20469;-76
2023/06/03 08:30:03;;;;;;;0.80;0.70;;;;;;;;;;5001296;28;21055;-76
2023/06/03 08:32:32;;;;;;;0.80;0.70;;;;;;;;;;5000760;28;20762;-75
2023/06/03 08:35:00;;;;;;;0.80;0.70;;;;;;;;;;4995711;28;20460;-75
2023/06/03 08:37:27;;;;;;;0.80;0.80;;;;;;;;;;4999533;28;20457;-74
2023/06/03 08:39:55;;;;;;;0.70;0.70;;;;;;;;;;5006699;28;20424;-75
2023/06/03 08:42:23;;;;;;;0.80;0.80;;;;;;;;;;5003345;28;20474;-76
2023/06/03 08:44:56;;;;;;;0.73;0.67;;;;;;;;;;5000503;28;20454;-75
2023/06/03 08:47:30;;;;;;;0.80;0.80;;;;;;;;;;5005089;28;20481;-76
2023/06/03 08:49:59;;;;;;;0.80;0.80;;;;;;;;;;4981786;28;20474;-75
2023/06/03 08:52:32;;;;;;;0.80;0.80;;;;;;;;;;4987866;28;20462;-76
2023/06/03 08:55:00;;;;;;;0.80;0.70;;;;;;;;;;4987239;28;20464;-78
2023/06/03 08:57:28;;;;;;;0.80;0.70;;;;;;;;;;5006073;28;20916;-77
2023/06/03 08:59:56;;;;;;;0.80;0.73;;;;;;;;;;5008825;28;20970;-73
2023/06/03 09:02:23;;;;;;;0.80;0.70;;;;;;;;;;5000667;28;20469;-78
2023/06/03 09:04:50;;;;;;;0.80;0.80;;;;;;;;;;4998018;28;20462;-77
2023/06/03 09:07:18;;;;;;;1.10;1.00;;;;;;;;;;5008896;28;20490;-80
2023/06/03 09:09:46;;;;;;;0.80;0.80;;;;;;;;;;5009505;28;20441;-76
2023/06/03 09:12:13;;;;;;;0.80;0.70;;;;;;;;;;5010057;28;20511;-80
2023/06/03 09:14:40;;;;;;;1.03;0.93;;;;;;;;;;5016753;28;20401;-78
2023/06/03 09:17:08;;;;;;;1.27;1.17;;;;;;;;;;5019824;28;20449;-79
2023/06/03 09:19:35;;;;;;;0.77;0.70;;;;;;;;;;4993350;28;20467;-78
2023/06/03 09:22:02;;;;;;;0.80;0.80;;;;;;;;;;5010387;28;20439;-79
2023/06/03 09:24:29;;;;;;;0.90;0.90;;;;;;;;;;5010307;28;20446;-78
2023/06/03 09:26:57;;;;;;;0.80;0.80;;;;;;;;;;5016019;28;20446;-78
2023/06/03 09:29:23;;;;;;;0.80;0.73;;;;;;;;;;5012469;28;20441;-77
2023/06/03 09:31:50;;;;;;;1.20;1.10;;;;;;;;;;5009693;28;20503;-75
2023/06/03 09:34:18;;;;;;;1.20;0.80;;;;;;;;;;5004068;28;20580;-73
2023/06/03 09:36:47;;;;;;;0.70;0.60;;;;;;;;;;5000332;28;20953;-76
2023/06/03 09:39:17;;;;;;;0.80;0.70;;;;;;;;;;5007673;28;20439;-75
2023/06/03 09:41:44;;;;;;;0.80;0.80;;;;;;;;;;4999525;28;20417;-76
2023/06/03 09:44:11;;;;;;;0.80;0.70;;;;;;;;;;5000602;28;20436;-78
2023/06/03 09:46:38;;;;;;;0.70;0.60;;;;;;;;;;5002615;28;20413;-74
2023/06/03 09:49:11;;;;;;;0.73;0.67;;;;;;;;;;5004099;28;20502;-76
2023/06/03 09:51:41;;;;;;;0.70;0.70;;;;;;;;;;5011002;28;20454;-74
2023/06/03 09:54:12;;;;;;;0.87;0.87;;;;;;;;;;5001704;28;20437;-76
2023/06/03 09:56:39;;;;;;;1.00;0.83;;;;;;;;;;5003417;28;20397;-74
2023/06/03 09:59:13;;;;;;;0.80;0.80;;;;;;;;;;5009777;28;20408;-73
2023/06/03 10:01:41;;;;;;;0.80;0.70;;;;;;;;;;5007571;28;20439;-75
2023/06/03 10:04:08;;;;;;;2.00;1.20;;;;;;;;;;5006152;28;20528;-76
2023/06/03 10:06:38;;;;;;;1.07;0.97;;;;;;;;;;4990019;28;20453;-76
2023/06/03 10:09:19;;;;;;;0.80;0.80;;;;;;;;;;4992715;28;21150;-73
2023/06/03 10:11:47;;;;;;;0.80;0.70;;;;;;;;;;5003761;28;20896;-75
2023/06/03 10:14:15;;;;;;;0.97;0.90;;;;;;;;;;5006583;28;20433;-75
2023/06/03 10:17:00;;;;;;;0.80;0.80;;;;;;;;;;5005568;28;20456;-76
2023/06/03 10:19:27;;;;;;;0.73;0.70;;;;;;;;;;5003981;28;20418;-75
2023/06/03 10:21:54;;;;;;;0.80;0.70;;;;;;;;;;5002082;28;20523;-72
2023/06/03 10:24:24;;;;;;;0.70;0.60;;;;;;;;;;5008840;28;20481;-74
2023/06/03 10:26:52;;;;;;;0.77;0.70;;;;;;;;;;5000301;28;20445;-77
2023/06/03 10:29:20;;;;;;;0.70;0.60;;;;;;;;;;5014987;28;20470;-74
2023/06/03 10:31:49;;;;;;;1.03;0.93;;;;;;;;;;5004491;28;20529;-75
2023/06/03 10:34:17;;;;;;;0.70;0.70;;;;;;;;;;5008406;28;20590;-75
2023/06/03 10:36:44;;;;;;;1.43;1.33;;;;;;;;;;5005783;28;20458;-76
2023/06/03 10:39:11;;;;;;;0.70;0.60;;;;;;;;;;5000816;28;20622;-73
2023/06/03 10:41:39;;;;;;;0.80;0.70;;;;;;;;;;5008682;28;20929;-75
2023/06/03 10:44:06;;;;;;;0.87;0.87;;;;;;;;;;5007654;28;20464;-75
2023/06/03 10:46:37;;;;;;;0.80;0.70;;;;;;;;;;4998962;28;20909;-75
2023/06/03 10:49:06;;;;;;;0.70;0.60;;;;;;;;;;4998893;28;20443;-75
2023/06/03 10:51:38;;;;;;;0.80;0.70;;;;;;;;;;4989978;28;20449;-75
2023/06/03 10:54:14;;;;;;;0.80;0.73;;;;;;;;;;5001594;28;20915;-75
2023/06/03 10:56:47;;;;;;;1.43;1.33;;;;;;;;;;5000430;28;20556;-75
2023/06/03 10:59:16;;;;;;;0.80;0.70;;;;;;;;;;5004289;28;20495;-75
2023/06/03 11:01:59;;;;;;;0.70;0.70;;;;;;;;;;5004998;28;20474;-75
2023/06/03 11:04:27;;;;;;;0.80;0.80;;;;;;;;;;4997577;28;20436;-74
2023/06/03 11:06:55;;;;;;;0.80;0.80;;;;;;;;;;5007720;28;20477;-73
2023/06/03 11:09:35;;;;;;;0.83;0.83;;;;;;;;;;5014535;28;20503;-74
2023/06/03 11:12:13;;;;;;;0.90;0.77;;;;;;;;;;5001850;28;21260;-74
2023/06/03 11:14:50;;;;;;;0.70;0.70;;;;;;;;;;5002308;28;20973;-76
2023/06/03 11:17:18;;;;;;;0.80;0.70;;;;;;;;;;5005195;28;20462;-74
2023/06/03 11:19:50;;;;;;;0.70;0.60;;;;;;;;;;4991788;28;20466;-76
2023/06/03 11:22:41;;;;;;;0.97;0.87;;;;;;;;;;4995121;28;20458;-72
2023/06/03 11:25:09;;;;;;;0.80;0.70;;;;;;;;;;4986070;28;20545;-75
2023/06/03 11:27:37;;;;;;;0.70;0.60;;;;;;;;;;5006429;28;20428;-73
2023/06/03 11:30:07;;;;;;;0.70;0.60;;;;;;;;;;4988303;28;20458;-75
2023/06/03 11:32:38;;;;;;;1.27;1.17;;;;;;;;;;5000577;28;20774;-74
2023/06/03 11:35:23;;;;;;;0.73;0.67;;;;;;;;;;4987070;28;20517;-74
2023/06/03 11:37:52;;;;;;;1.17;0.87;;;;;;;;;;5009271;28;20649;-74
2023/06/03 11:40:20;;;;;;;0.80;0.70;;;;;;;;;;4996800;28;20469;-74
2023/06/03 11:43:13;;;;;;;0.73;0.70;;;;;;;;;;5004283;28;20442;-77
2023/06/03 11:45:42;;;;;;;0.93;0.70;;;;;;;;;;4956696;28;20505;-76
2023/06/03 11:48:10;;;;;;;0.70;0.60;;;;;;;;;;5006700;28;20438;-74
2023/06/03 11:50:46;;;;;;;0.73;0.70;;;;;;;;;;4997405;28;20443;-76
2023/06/03 11:53:29;;;;;;;0.80;0.70;;;;;;;;;;5003490;28;20459;-75
2023/06/03 11:56:03;;;;;;;0.80;0.70;;;;;;;;;;5003599;28;20448;-77
2023/06/03 11:58:30;;;;;;;0.90;0.80;;;;;;;;;;5005508;28;20440;-74
2023/06/03 12:01:05;;;;;;;0.80;0.70;;;;;;;;;;4998927;28;21009;-76
2023/06/03 12:03:32;;;;;;;0.70;0.60;;;;;;;;;;4999956;28;20439;-76
2023/06/03 12:06:02;;;;;;;0.70;0.60;;;;;;;;;;4998204;28;20477;-78
2023/06/03 12:08:40;;;;;;;0.80;0.60;;;;;;;;;;4986032;28;20474;-75
2023/06/03 12:11:07;;;;;;;0.70;0.60;;;;;;;;;;4999377;28;20465;-76
2023/06/03 12:13:38;;;;;;;0.90;0.77;;;;;;;;;;4997805;28;20446;-75
2023/06/03 12:16:06;;;;;;;0.80;0.70;;;;;;;;;;4998598;28;20974;-76
2023/06/03 12:18:33;;;;;;;0.80;0.70;;;;;;;;;;4990948;28;20494;-75
2023/06/03 12:21:14;;;;;;;0.70;0.60;;;;;;;;;;4997801;28;20505;-77
2023/06/03 12:23:41;;;;;;;0.80;0.70;;;;;;;;;;5003215;28;20966;-77
2023/06/03 12:26:09;;;;;;;1.33;1.23;;;;;;;;;;5003879;28;20473;-75
2023/06/03 12:28:35;;;;;;;0.80;0.70;;;;;;;;;;4999762;28;20495;-76
2023/06/03 12:31:13;;;;;;;0.70;0.60;;;;;;;;;;5005925;28;20480;-79
2023/06/03 12:33:41;;;;;;;3.50;2.00;;;;;;;;;;5001636;28;20841;-76
2023/06/03 12:36:08;;;;;;;0.70;0.60;;;;;;;;;;4996244;28;20438;-77
2023/06/03 12:38:49;;;;;;;0.70;0.60;;;;;;;;;;4992983;28;20532;-78
2023/06/03 12:41:16;;;;;;;1.57;1.47;;;;;;;;;;4996145;28;20849;-75
2023/06/03 12:43:45;;;;;;;0.70;0.60;;;;;;;;;;5005839;28;20457;-77
2023/06/03 12:46:17;;;;;;;0.80;0.70;;;;;;;;;;5006424;28;20452;-75
2023/06/03 12:48:44;;;;;;;0.70;0.60;;;;;;;;;;4982981;28;20462;-75
2023/06/03 12:51:21;;;;;;;2.60;2.50;;;;;;;;;;5004209;28;21151;-76
2023/06/03 12:53:49;;;;;;;0.70;0.50;;;;;;;;;;4995796;28;20443;-77
2023/06/03 12:56:16;;;;;;;0.77;0.60;;;;;;;;;;4998270;28;20435;-78
2023/06/03 12:58:43;;;;;;;0.80;0.60;;;;;;;;;;4995631;28;20449;-76
2023/06/03 13:01:10;;;;;;;0.70;0.60;;;;;;;;;;5000493;28;20827;-75
2023/06/03 13:03:39;;;;;;;1.83;1.73;;;;;;;;;;4997803;28;20521;-74
2023/06/03 13:06:06;;;;;;;0.80;0.60;;;;;;;;;;5002824;28;20462;-76
2023/06/03 13:08:33;;;;;;;1.57;0.60;;;;;;;;;;5008390;28;20461;-77
2023/06/03 13:11:00;;;;;;;0.70;0.57;;;;;;;;;;4999886;28;20438;-75
2023/06/03 13:13:30;;;;;;;3.53;1.10;;;;;;;;;;5019965;28;20510;-77
2023/06/03 13:15:57;;;;;;;0.70;0.60;;;;;;;;;;5010175;28;20856;-75
2023/06/03 13:18:25;;;;;;;0.70;0.60;;;;;;;;;;5009411;28;21271;-76
2023/06/03 13:20:53;;;;;;;0.70;0.50;;;;;;;;;;5004384;28;20477;-76
2023/06/03 13:23:19;;;;;;;0.80;0.70;;;;;;;;;;4998708;28;20472;-77
2023/06/03 13:25:46;;;;;;;0.70;0.50;;;;;;;;;;5012615;28;20450;-78
2023/06/03 13:28:13;;;;;;;0.80;0.60;;;;;;;;;;5004543;28;20508;-76
2023/06/03 13:30:40;;;;;;;0.80;0.50;;;;;;;;;;5013923;28;20883;-76
2023/06/03 13:33:07;;;;;;;0.80;0.60;;;;;;;;;;5001167;28;20803;-76
2023/06/03 13:35:34;;;;;;;1.00;0.87;;;;;;;;;;5009309;28;20429;-76
2023/06/03 13:38:02;;;;;;;0.77;0.60;;;;;;;;;;5009544;28;20458;-76
2023/06/03 13:40:31;;;;;;;0.80;0.70;;;;;;;;;;5003619;28;20567;-76
2023/06/03 13:42:58;;;;;;;0.80;0.60;;;;;;;;;;5009493;28;20449;-77
2023/06/03 13:45:25;;;;;;;0.70;0.50;;;;;;;;;;5010467;28;20484;-75
2023/06/03 13:47:52;;;;;;;0.80;0.80;;;;;;;;;;5004358;28;20993;-76
2023/06/03 13:50:19;;;;;;;0.80;0.60;;;;;;;;;;5008292;28;20437;-74
2023/06/03 13:52:46;;;;;;;0.80;0.60;;;;;;;;;;5005455;28;20500;-73
2023/06/03 13:55:14;;;;;;;0.70;0.57;;;;;;;;;;4997709;28;20474;-74
2023/06/03 13:57:43;;;;;;;0.90;0.70;;;;;;;;;;4994699;28;20461;-74
2023/06/03 14:00:11;;;;;;;0.70;0.60;;;;;;;;;;5003420;28;20511;-74
2023/06/03 14:02:38;;;;;;;0.70;0.50;;;;;;;;;;5005809;28;20500;-75
2023/06/03 14:05:05;;;;;;;0.70;0.50;;;;;;;;;;5000574;28;20445;-74
2023/06/03 14:07:32;;;;;;;0.93;0.60;;;;;;;;;;5015560;28;21150;-74
2023/06/03 14:09:59;;;;;;;0.70;0.50;;;;;;;;;;5011646;28;20430;-75
2023/06/03 14:12:27;;;;;;;0.80;0.50;;;;;;;;;;5012947;28;20497;-74
2023/06/03 14:14:54;;;;;;;0.70;0.50;;;;;;;;;;5008602;28;20984;-74
2023/06/03 14:17:22;;;;;;;0.70;0.50;;;;;;;;;;5006946;28;20811;-74
2023/06/03 14:19:49;;;;;;;0.70;0.60;;;;;;;;;;5011076;28;20953;-74
2023/06/03 14:22:16;;;;;;;0.80;0.60;;;;;;;;;;5005370;28;20477;-75
2023/06/03 14:24:44;;;;;;;0.80;0.60;;;;;;;;;;5008167;28;20433;-75
2023/06/03 14:27:11;;;;;;;0.70;0.60;;;;;;;;;;4993495;28;20508;-74
2023/06/03 14:29:40;;;;;;;0.80;0.60;;;;;;;;;;5009878;28;20429;-75
2023/06/03 14:32:08;;;;;;;0.80;0.70;;;;;;;;;;5008620;28;20734;-74
2023/06/03 14:34:34;;;;;;;0.80;0.50;;;;;;;;;;5003417;28;20438;-74
2023/06/03 14:37:01;;;;;;;0.80;0.50;;;;;;;;;;5018557;28;20488;-76
2023/06/03 14:39:28;;;;;;;0.80;0.60;;;;;;;;;;5010690;28;20441;-77
2023/06/03 14:41:57;;;;;;;0.97;0.73;;;;;;;;;;4998380;28;20493;-76
2023/06/03 14:44:24;;;;;;;0.80;0.60;;;;;;;;;;5016942;28;20477;-75
2023/06/03 14:46:52;;;;;;;0.80;0.57;;;;;;;;;;5020467;28;20451;-77
2023/06/03 14:49:23;;;;;;;0.73;0.50;;;;;;;;;;5016759;28;20427;-76
2023/06/03 14:51:50;;;;;;;0.80;0.57;;;;;;;;;;5017309;28;20498;-75